Main page
METAR-TAF:

METAR-TAF

Airports :

Lee's Summit Municipal Airport

Lee's Summit, Missouri, United States

latitude: 38-57-35N, longitude: 094-22-18W, elevation: 1004 ft

Current weather observation

The report was made 1 hour and 11 minutes ago, at 01:53 UTC
Wind 13 mph from the South
Temperature 91°F
Humidity 49%
Pressure 29.81 in. Hg
Visibility: 10 miles
Clear sky

METAR: KLXT 250153Z AUTO 19011KT 10SM CLR 33/21 A2981 RMK AO2 SLP081 T03330211

Time: 22:04 (03:04 UTC)


TAF: missing

Weather observations and forecasts of more than 4000 airports (METAR and TAF reports).

The available stations are represented by yellow and red dots on the map.

Hover mouse over dot to see the name of the station.

Then click to see weather observations and forecasts.

To change the map : click on the green buttons with a black cross to zoom in, on the green button with a dash to zoom out, or on the green arrows for adjacent maps.


METAR-TAF: